Time;durP1;ratioP1;P1;durP2;ratioP2;P2;SDS_P1;SDS_P2;PMS_P1;PMS_P2;Temp;Humidity;BMP_temperature;BMP_pressure;BME280_temperature;BME280_humidity;BME280_pressure;Samples;Min_cycle;Max_cycle;Signal;HPM_P1;HPM_P2
2023/01/10 00:00:40;;;;;;;1.23;1.13;;;;;;;1.18;100.00;98496.91;5110793;28;20197;-60
2023/01/10 00:03:08;;;;;;;1.27;1.20;;;;;;;0.96;100.00;98490.28;5110692;28;20215;-59
2023/01/10 00:05:35;;;;;;;7.37;1.77;;;;;;;1.05;100.00;98487.38;5110625;28;20224;-59
2023/01/10 00:08:03;;;;;;;0.70;0.70;;;;;;;1.13;100.00;98487.03;5110530;28;20197;-59
2023/01/10 00:10:31;;;;;;;1.70;0.87;;;;;;;1.21;100.00;98486.69;5110355;28;20669;-60
2023/01/10 00:15:44;;;;;;;0.33;0.33;;;;;;;1.00;100.00;98479.19;5110117;28;20190;-60
2023/01/10 00:18:11;;;;;;;3.07;0.97;;;;;;;1.07;100.00;98465.44;5110435;28;20212;-59
2023/01/10 00:20:38;;;;;;;0.57;0.57;;;;;;;1.14;100.00;98466.00;5110162;28;20201;-60
2023/01/10 00:23:05;;;;;;;0.57;0.57;;;;;;;0.91;100.00;98469.53;5110437;28;20364;-59
2023/01/10 00:25:34;;;;;;;0.97;0.87;;;;;;;1.00;100.00;98469.13;5110218;28;20251;-59
2023/01/10 00:28:06;;;;;;;1.00;0.97;;;;;;;1.15;100.00;98467.63;5110195;28;20220;-60
2023/01/10 00:30:34;;;;;;;0.30;0.30;;;;;;;0.98;100.00;98470.88;5110235;28;20193;-59
2023/01/10 00:33:04;;;;;;;0.63;0.63;;;;;;;1.00;100.00;98484.22;5110042;28;20270;-60
2023/01/10 00:35:31;;;;;;;0.60;0.50;;;;;;;0.87;100.00;98485.63;5110106;28;20205;-60
2023/01/10 00:38:00;;;;;;;2.80;0.87;;;;;;;0.99;100.00;98481.75;5110268;28;20573;-60
2023/01/10 00:40:27;;;;;;;0.70;0.70;;;;;;;1.06;100.00;98483.97;5110184;28;20320;-60
2023/01/10 00:45:38;;;;;;;0.30;0.30;;;;;;;1.13;100.00;98469.41;5110169;28;20208;-59
2023/01/10 00:48:07;;;;;;;1.40;0.87;;;;;;;1.02;100.00;98477.44;5110259;28;20197;-60
2023/01/10 00:50:33;;;;;;;0.80;0.80;;;;;;;1.08;100.00;98469.63;5109809;28;20204;-59
2023/01/10 00:53:00;;;;;;;0.90;0.90;;;;;;;1.13;100.00;98471.91;5109860;28;20701;-60
2023/01/10 00:55:27;;;;;;;1.20;1.17;;;;;;;1.22;100.00;98470.69;5109919;28;20305;-59
2023/01/10 00:57:54;;;;;;;1.37;0.90;;;;;;;1.21;100.00;98476.63;5109973;28;20201;-60
2023/01/10 01:00:21;;;;;;;1.90;0.77;;;;;;;1.02;100.00;98479.09;5110219;28;20228;-61
2023/01/10 01:02:50;;;;;;;0.40;0.40;;;;;;;1.12;100.00;98480.34;5109946;28;20201;-59
2023/01/10 01:05:19;;;;;;;0.70;0.47;;;;;;;1.21;100.00;98489.22;5110282;28;20665;-60
2023/01/10 01:07:48;;;;;;;1.83;1.20;;;;;;;0.95;100.00;98481.09;5109920;28;20201;-60
2023/01/10 01:10:27;;;;;;;2.10;1.33;;;;;;;1.08;100.00;98467.09;5110118;28;20548;-60
2023/01/10 01:12:54;;;;;;;1.37;1.27;;;;;;;1.25;100.00;98483.16;5110077;28;20729;-60
2023/01/10 01:15:22;;;;;;;1.37;1.27;;;;;;;1.21;100.00;98472.41;5109649;28;20475;-60
2023/01/10 01:17:49;;;;;;;0.80;0.80;;;;;;;1.26;100.00;98474.72;5109914;28;20201;-60
2023/01/10 01:20:16;;;;;;;0.47;0.47;;;;;;;1.27;100.00;98476.34;5109596;28;20226;-60
2023/01/10 01:22:44;;;;;;;1.77;1.67;;;;;;;1.30;100.00;98463.63;5109627;28;20198;-59
2023/01/10 01:25:11;;;;;;;1.40;1.30;;;;;;;1.22;100.00;98473.22;5109717;28;20251;-60
2023/01/10 01:27:38;;;;;;;1.23;1.13;;;;;;;1.12;100.00;98468.59;5111497;28;20197;-60
2023/01/10 01:30:06;;;;;;;1.57;0.87;;;;;;;1.20;100.00;98462.41;5113428;28;20514;-60
2023/01/10 01:32:33;;;;;;;1.87;1.17;;;;;;;1.20;100.00;98459.91;5113439;28;20430;-60
2023/01/10 01:35:00;;;;;;;0.90;0.87;;;;;;;1.17;100.00;98455.81;5113513;28;20222;-59
2023/01/10 01:37:27;;;;;;;1.70;1.60;;;;;;;1.07;100.00;98455.38;5113305;28;20201;-60
2023/01/10 01:39:55;;;;;;;1.33;1.23;;;;;;;1.07;100.00;98454.56;5113113;28;20213;-61
2023/01/10 01:42:25;;;;;;;1.13;0.93;;;;;;;1.10;100.00;98450.19;5113355;28;20279;-60
2023/01/10 01:45:34;;;;;;;0.77;0.77;;;;;;;1.18;100.00;98451.59;5113262;28;20233;-60
2023/01/10 01:48:08;;;;;;;1.27;1.17;;;;;;;1.30;100.00;98458.59;5080651;28;20212;-60
2023/01/10 01:50:39;;;;;;;3.73;1.63;;;;;;;1.19;100.00;98454.03;5112906;28;20232;-60
2023/01/10 01:53:10;;;;;;;1.30;1.20;;;;;;;1.26;100.00;98462.13;5113067;28;20225;-59
2023/01/10 01:55:39;;;;;;;1.13;1.03;;;;;;;1.15;100.00;98461.78;5112934;28;20202;-61
2023/01/10 01:58:12;;;;;;;0.77;0.77;;;;;;;1.32;100.00;98454.31;5112954;28;20202;-60
2023/01/10 02:00:39;;;;;;;1.80;0.87;;;;;;;1.30;100.00;98456.88;5112695;28;20266;-60
2023/01/10 02:03:06;;;;;;;0.40;0.40;;;;;;;1.31;100.00;98448.47;5112738;28;20206;-60
2023/01/10 02:05:37;;;;;;;1.60;1.33;;;;;;;1.44;100.00;98453.75;5112838;28;20201;-60
2023/01/10 02:08:04;;;;;;;1.10;1.07;;;;;;;1.20;100.00;98444.78;5112029;28;20205;-60
2023/01/10 02:10:36;;;;;;;0.80;0.80;;;;;;;1.08;100.00;98431.84;5112429;28;20211;-60
2023/01/10 02:13:08;;;;;;;0.80;0.80;;;;;;;1.11;100.00;98436.75;5112442;28;20252;-59
2023/01/10 02:15:35;;;;;;;0.60;0.60;;;;;;;0.86;100.00;98411.03;5112848;28;20201;-60
2023/01/10 02:18:04;;;;;;;2.37;1.43;;;;;;;0.90;100.00;98398.25;5112347;28;20212;-60
2023/01/10 02:20:39;;;;;;;1.77;1.10;;;;;;;0.96;100.00;98396.31;5112413;28;20208;-60
2023/01/10 02:23:34;;;;;;;0.50;0.50;;;;;;;1.12;100.00;98389.72;5112156;28;20203;-60
2023/01/10 02:26:34;;;;;;;1.30;1.07;;;;;;;1.07;100.00;98379.84;5112066;28;20198;-59
2023/01/10 02:29:35;;;;;;;1.33;1.23;;;;;;;1.06;100.00;98382.47;5112159;28;20218;-59
2023/01/10 02:32:17;;;;;;;0.90;0.90;;;;;;;0.92;100.00;98395.66;5112185;28;20193;-60
2023/01/10 02:34:58;;;;;;;1.40;1.30;;;;;;;0.84;100.00;98398.53;5111912;28;20237;-59
2023/01/10 02:37:40;;;;;;;1.97;1.47;;;;;;;0.85;100.00;98399.34;5112183;28;20197;-60
2023/01/10 02:40:13;;;;;;;1.60;1.50;;;;;;;0.98;100.00;98395.38;5111041;28;20221;-59
2023/01/10 02:42:48;;;;;;;0.50;0.50;;;;;;;1.09;100.00;98398.22;5111856;27;20193;-60
2023/01/10 02:45:21;;;;;;;0.77;0.77;;;;;;;1.15;100.00;98409.72;5111981;28;20228;-59
2023/01/10 02:47:49;;;;;;;3.70;1.30;;;;;;;1.22;100.00;98390.13;5111677;28;20205;-60
2023/01/10 02:50:44;;;;;;;2.97;1.90;;;;;;;1.03;100.00;98388.44;5111771;28;20221;-60
2023/01/10 02:53:16;;;;;;;7.30;0.87;;;;;;;1.08;100.00;98391.56;5106095;28;20248;-60
2023/01/10 02:56:01;;;;;;;1.20;1.20;;;;;;;1.13;100.00;98387.16;5111573;28;20678;-60
2023/01/10 02:58:38;;;;;;;0.73;0.73;;;;;;;1.24;100.00;98385.84;5111646;28;20227;-60
2023/01/10 03:01:10;;;;;;;2.13;1.17;;;;;;;1.12;100.00;98383.00;5111346;28;20207;-60
2023/01/10 03:03:47;;;;;;;1.70;1.60;;;;;;;1.25;100.00;98370.69;5111640;28;20705;-59
2023/01/10 03:06:24;;;;;;;1.70;1.60;;;;;;;1.12;100.00;98372.91;5111225;28;20204;-59
2023/01/10 03:08:56;;;;;;;1.47;1.37;;;;;;;1.14;100.00;98360.28;5111484;28;20244;-60
2023/01/10 03:11:39;;;;;;;2.80;1.73;;;;;;;0.97;100.00;98347.63;5111144;28;20185;-59
2023/01/10 03:14:12;;;;;;;0.93;0.93;;;;;;;0.98;100.00;98347.56;5111567;28;20237;-59
2023/01/10 03:16:44;;;;;;;1.10;1.00;;;;;;;0.92;100.00;98340.28;5111051;28;20216;-59
2023/01/10 03:19:15;;;;;;;2.77;2.13;;;;;;;1.00;100.00;98339.94;5111195;28;20214;-60
2023/01/10 03:21:44;;;;;;;5.30;2.27;;;;;;;0.78;100.00;98333.34;5111135;28;20618;-61
2023/01/10 03:24:16;;;;;;;1.87;1.27;;;;;;;0.87;100.00;98337.16;5111250;28;20721;-61
2023/01/10 03:26:49;;;;;;;2.20;2.07;;;;;;;0.89;100.00;98350.50;5110933;28;20650;-59
2023/01/10 03:29:22;;;;;;;3.97;1.83;;;;;;;0.77;100.00;98346.81;5110896;28;20647;-60
2023/01/10 03:31:55;;;;;;;1.70;1.60;;;;;;;0.84;100.00;98337.28;5110880;28;20197;-59
2023/01/10 03:34:25;;;;;;;3.77;2.77;;;;;;;1.04;100.00;98334.69;5110726;28;20233;-59
2023/01/10 03:37:02;;;;;;;1.80;1.67;;;;;;;0.98;100.00;98329.94;5110562;28;20193;-60
2023/01/10 03:39:37;;;;;;;3.80;2.50;;;;;;;1.05;100.00;98313.69;5111365;28;20628;-61
2023/01/10 03:42:10;;;;;;;3.67;1.60;;;;;;;0.98;100.00;98314.03;5110787;28;20196;-59
2023/01/10 03:44:44;;;;;;;1.73;1.63;;;;;;;1.10;100.00;98309.22;5110791;28;20236;-60
2023/01/10 03:47:17;;;;;;;1.33;1.23;;;;;;;0.96;100.00;98301.53;5110673;28;20204;-61
2023/01/10 03:49:48;;;;;;;2.53;2.03;;;;;;;1.02;100.00;98307.94;5110162;28;20221;-61
2023/01/10 03:52:18;;;;;;;5.20;1.60;;;;;;;1.02;100.00;98311.31;5110405;28;20200;-60
2023/01/10 03:54:46;;;;;;;0.70;0.70;;;;;;;1.07;100.00;98309.38;5110707;28;20229;-60
2023/01/10 03:57:17;;;;;;;1.93;0.57;;;;;;;1.07;100.00;98314.41;5110413;28;20242;-59
2023/01/10 03:59:45;;;;;;;3.03;1.50;;;;;;;1.05;100.00;98316.19;5110332;28;20217;-61
2023/01/10 04:02:12;;;;;;;0.70;0.70;;;;;;;1.08;100.00;98325.31;5110264;28;20193;-60
2023/01/10 04:04:38;;;;;;;1.83;1.30;;;;;;;1.07;100.00;98324.47;5110322;28;20232;-61
2023/01/10 04:07:07;;;;;;;6.83;1.50;;;;;;;1.07;100.00;98318.63;5110004;28;20688;-59
2023/01/10 04:09:34;;;;;;;3.13;1.27;;;;;;;1.29;100.00;98323.50;5110397;28;20217;-60
2023/01/10 04:12:01;;;;;;;1.83;1.30;;;;;;;1.30;100.00;98320.91;5109917;28;20676;-61
2023/01/10 04:14:27;;;;;;;3.03;2.13;;;;;;;1.24;100.00;98332.97;5110271;28;20279;-60
2023/01/10 04:16:55;;;;;;;1.37;1.27;;;;;;;1.34;100.00;98334.19;5110110;28;20193;-60
2023/01/10 04:19:22;;;;;;;3.37;2.60;;;;;;;1.45;100.00;98342.03;5110255;28;20217;-59
2023/01/10 04:21:48;;;;;;;1.30;1.20;;;;;;;1.44;100.00;98342.91;5110392;28;20228;-60
2023/01/10 04:24:17;;;;;;;1.70;1.60;;;;;;;1.81;100.00;98351.25;5109846;28;20709;-61
2023/01/10 04:26:44;;;;;;;3.67;2.67;;;;;;;1.70;100.00;98344.22;5109959;28;20201;-59
2023/01/10 04:29:10;;;;;;;2.20;1.47;;;;;;;1.85;100.00;98347.69;5110018;28;20217;-59
2023/01/10 04:31:38;;;;;;;4.10;2.07;;;;;;;2.13;100.00;98351.38;5109801;28;20201;-59
2023/01/10 04:34:06;;;;;;;6.00;3.27;;;;;;;1.95;100.00;98353.94;5110131;28;20241;-61
2023/01/10 04:36:32;;;;;;;3.30;3.00;;;;;;;1.81;100.00;98342.00;5109988;28;20189;-61
2023/01/10 04:38:59;;;;;;;1.70;1.60;;;;;;;1.83;100.00;98349.47;5109881;28;20726;-60
2023/01/10 04:41:28;;;;;;;4.70;2.17;;;;;;;1.81;100.00;98344.50;5109793;28;20197;-59
2023/01/10 04:43:55;;;;;;;1.97;1.53;;;;;;;1.79;100.00;98342.94;5109887;28;20225;-59
2023/01/10 04:46:21;;;;;;;2.10;1.47;;;;;;;1.82;100.00;98340.28;5109942;28;20193;-60
2023/01/10 04:48:48;;;;;;;2.10;1.77;;;;;;;1.81;100.00;98331.09;5109950;28;20358;-61
2023/01/10 04:51:15;;;;;;;3.27;2.97;;;;;;;1.91;100.00;98326.41;5109720;28;20288;-60
2023/01/10 04:53:42;;;;;;;2.53;1.30;;;;;;;1.89;100.00;98329.03;5109972;28;20233;-59
2023/01/10 04:56:15;;;;;;;2.37;2.17;;;;;;;1.95;100.00;98327.88;5109781;28;20204;-61
2023/01/10 04:58:43;;;;;;;1.83;1.73;;;;;;;1.96;100.00;98310.16;5110141;28;20221;-59
2023/01/10 05:01:11;;;;;;;2.07;1.93;;;;;;;1.93;100.00;98315.38;5109614;28;20200;-60
2023/01/10 05:03:38;;;;;;;1.93;1.80;;;;;;;2.04;100.00;98328.25;5113454;28;20225;-60
2023/01/10 05:06:05;;;;;;;2.10;1.87;;;;;;;1.99;100.00;98325.13;5113456;28;20576;-59
2023/01/10 05:08:32;;;;;;;1.60;1.30;;;;;;;1.99;100.00;98314.25;5113812;28;20216;-61
2023/01/10 05:10:59;;;;;;;4.13;2.10;;;;;;;1.98;100.00;98308.41;5113517;28;20564;-60
2023/01/10 05:13:26;;;;;;;2.57;2.37;;;;;;;2.06;100.00;98304.66;5113746;28;20217;-59
2023/01/10 05:15:56;;;;;;;2.47;2.27;;;;;;;2.09;100.00;98307.03;5113572;28;20197;-59
2023/01/10 05:18:23;;;;;;;2.93;2.67;;;;;;;2.02;100.00;98312.38;5113600;28;20259;-60
2023/01/10 05:20:51;;;;;;;1.37;1.30;;;;;;;2.13;100.00;98295.91;5113749;28;20470;-60
2023/01/10 05:23:18;;;;;;;2.83;1.53;;;;;;;2.20;100.00;98317.41;5113525;28;20209;-60
2023/01/10 05:25:45;;;;;;;1.47;1.37;;;;;;;2.35;100.00;98321.66;5113350;28;20197;-60
2023/01/10 05:28:11;;;;;;;1.67;1.47;;;;;;;2.15;100.00;98317.66;5113193;28;20197;-60
2023/01/10 05:30:38;;;;;;;9.87;2.27;;;;;;;2.15;100.00;98316.81;5113541;28;20207;-61
2023/01/10 05:33:07;;;;;;;1.70;1.60;;;;;;;2.06;100.00;98305.47;5113102;28;20197;-60
2023/01/10 05:35:34;;;;;;;6.07;2.13;;;;;;;2.11;100.00;98302.72;5113069;28;20229;-59
2023/01/10 05:38:00;;;;;;;1.90;1.80;;;;;;;2.24;100.00;98308.78;5112940;28;20196;-60
2023/01/10 05:40:27;;;;;;;2.27;1.83;;;;;;;2.29;100.00;98304.31;5113121;28;20661;-60
2023/01/10 05:42:54;;;;;;;1.13;1.10;;;;;;;2.24;100.00;98303.72;5113136;28;20208;-60
2023/01/10 05:45:21;;;;;;;3.47;1.93;;;;;;;2.24;100.00;98298.69;5112977;27;20712;-61
2023/01/10 05:47:48;;;;;;;1.47;1.37;;;;;;;2.22;100.00;98305.53;5112909;28;20201;-60
2023/01/10 05:50:17;;;;;;;3.87;2.60;;;;;;;2.22;100.00;98313.09;5112822;28;20225;-59
2023/01/10 05:52:43;;;;;;;5.87;1.83;;;;;;;2.23;100.00;98327.31;5112463;28;20200;-60
2023/01/10 05:55:10;;;;;;;1.77;1.67;;;;;;;2.23;100.00;98323.09;5112904;28;20232;-61
2023/01/10 05:57:37;;;;;;;1.10;1.00;;;;;;;2.21;100.00;98324.06;5112667;28;20224;-61
2023/01/10 06:00:05;;;;;;;2.10;1.40;;;;;;;2.25;100.00;98325.56;5112970;28;20225;-61
2023/01/10 06:02:32;;;;;;;2.20;1.90;;;;;;;2.21;100.00;98329.94;5112607;28;20197;-60
2023/01/10 06:04:59;;;;;;;4.03;2.43;;;;;;;2.22;100.00;98315.63;5112441;28;20234;-61
2023/01/10 06:07:27;;;;;;;5.23;2.27;;;;;;;2.18;100.00;98321.69;5112702;28;20564;-59
2023/01/10 06:09:54;;;;;;;4.23;3.13;;;;;;;2.18;100.00;98314.97;5112436;28;20217;-60
2023/01/10 06:12:21;;;;;;;2.70;1.77;;;;;;;2.26;100.00;98322.13;5112536;28;20208;-61
2023/01/10 06:14:48;;;;;;;3.57;2.53;;;;;;;2.36;100.00;98313.22;5112301;28;20244;-60
2023/01/10 06:17:15;;;;;;;2.93;2.27;;;;;;;2.31;100.00;98309.28;5112277;28;20197;-60
2023/01/10 06:19:41;;;;;;;3.00;2.07;;;;;;;2.35;100.00;98315.81;5112210;28;20221;-60
2023/01/10 06:22:08;;;;;;;5.60;2.90;;;;;;;2.30;100.00;98320.25;5112267;28;20193;-59
2023/01/10 06:24:37;;;;;;;3.67;2.53;;;;;;;2.41;100.00;98326.38;5112302;28;20221;-59
2023/01/10 06:27:04;;;;;;;2.33;2.03;;;;;;;2.38;100.00;98321.50;5112130;28;20193;-61
2023/01/10 06:29:31;;;;;;;3.73;2.33;;;;;;;2.26;100.00;98322.94;5112495;28;20225;-61
2023/01/10 06:31:57;;;;;;;3.37;2.17;;;;;;;2.17;100.00;98317.56;5111961;28;20197;-60
2023/01/10 06:34:24;;;;;;;1.63;1.40;;;;;;;2.28;100.00;98320.34;5112225;28;20229;-60
2023/01/10 06:36:51;;;;;;;1.70;1.53;;;;;;;2.44;100.00;98316.16;5112457;28;20327;-61
2023/01/10 06:39:18;;;;;;;4.97;1.70;;;;;;;2.42;100.00;98320.47;5112145;28;20290;-60
2023/01/10 06:41:46;;;;;;;2.30;2.10;;;;;;;2.63;100.00;98318.53;5112018;28;20208;-59
2023/01/10 06:44:13;;;;;;;1.90;1.77;;;;;;;2.70;100.00;98316.50;5111676;28;20652;-61
2023/01/10 06:46:40;;;;;;;1.60;1.33;;;;;;;2.52;100.00;98328.38;5111827;28;20677;-60
2023/01/10 06:49:07;;;;;;;3.80;2.63;;;;;;;2.45;100.00;98312.72;5111691;28;20228;-59
2023/01/10 06:51:34;;;;;;;4.33;2.80;;;;;;;2.53;100.00;98314.03;5111528;28;20669;-60
2023/01/10 06:54:01;;;;;;;2.27;2.07;;;;;;;2.57;100.00;98315.53;5111569;28;20220;-60
2023/01/10 06:56:28;;;;;;;3.13;2.03;;;;;;;2.70;100.00;98317.31;5111719;27;20201;-60
2023/01/10 06:58:56;;;;;;;1.90;1.80;;;;;;;2.77;100.00;98312.75;5111507;28;20229;-60
2023/01/10 07:01:23;;;;;;;2.43;2.07;;;;;;;2.81;100.00;98320.97;5111882;28;20197;-60
2023/01/10 07:03:50;;;;;;;2.87;1.67;;;;;;;2.72;100.00;98319.75;5111760;28;20224;-61
2023/01/10 07:06:17;;;;;;;3.40;2.53;;;;;;;2.86;100.00;98327.41;5111320;28;20207;-61
2023/01/10 07:08:45;;;;;;;2.97;2.67;;;;;;;2.86;100.00;98327.41;5111372;28;20220;-60
2023/01/10 07:11:14;;;;;;;2.13;1.93;;;;;;;2.89;100.00;98332.31;5111352;28;20193;-60
2023/01/10 07:13:41;;;;;;;4.10;2.70;;;;;;;2.93;100.00;98331.22;5111489;28;20223;-61
2023/01/10 07:16:11;;;;;;;3.53;2.93;;;;;;;3.06;100.00;98348.28;5111031;28;20233;-60
2023/01/10 07:18:40;;;;;;;5.47;2.57;;;;;;;3.29;100.00;98385.75;5111336;28;20217;-60
2023/01/10 07:21:07;;;;;;;4.43;2.80;;;;;;;3.21;100.00;98409.78;5111024;28;20208;-60
2023/01/10 07:23:34;;;;;;;3.27;1.60;;;;;;;3.25;100.00;98414.56;5111258;28;20213;-60
2023/01/10 07:26:04;;;;;;;2.07;1.80;;;;;;;3.27;100.00;98407.75;5110228;28;20209;-60
2023/01/10 07:28:33;;;;;;;3.07;2.10;;;;;;;3.33;100.00;98406.59;5111118;28;20233;-60
2023/01/10 07:31:00;;;;;;;2.40;2.20;;;;;;;3.39;100.00;98389.38;5111155;28;20733;-60
2023/01/10 07:33:30;;;;;;;2.07;1.87;;;;;;;3.27;100.00;98382.47;5111280;28;20232;-61
2023/01/10 07:35:56;;;;;;;2.10;1.93;;;;;;;3.37;100.00;98376.03;5110928;28;20289;-61
2023/01/10 07:38:24;;;;;;;3.20;1.57;;;;;;;3.64;100.00;98375.44;5111082;28;20221;-59
2023/01/10 07:40:50;;;;;;;4.47;2.20;;;;;;;3.61;100.00;98373.06;5110717;28;20688;-60
2023/01/10 07:43:17;;;;;;;2.50;1.97;;;;;;;3.64;100.00;98370.38;5110561;28;20236;-61
2023/01/10 07:45:44;;;;;;;1.43;1.33;;;;;;;3.73;100.00;98369.84;5110622;28;20197;-61
2023/01/10 07:48:11;;;;;;;1.83;1.73;;;;;;;3.69;100.00;98363.31;5110462;28;20204;-60
2023/01/10 07:50:39;;;;;;;4.20;1.97;;;;;;;3.51;100.00;98359.31;5110789;28;20201;-60
2023/01/10 07:53:07;;;;;;;2.57;2.37;;;;;;;3.73;100.00;98349.63;5110281;28;20695;-61
2023/01/10 07:55:38;;;;;;;3.10;2.20;;;;;;;3.71;100.00;98351.44;5110683;28;20236;-61
2023/01/10 07:58:06;;;;;;;2.57;2.37;;;;;;;3.79;100.00;98344.22;5110343;28;20696;-61
2023/01/10 08:00:34;;;;;;;1.17;1.10;;;;;;;3.68;100.00;98341.50;5110665;28;20288;-60
2023/01/10 08:03:01;;;;;;;9.27;2.53;;;;;;;3.71;100.00;98346.38;5110338;28;20205;-61
2023/01/10 08:05:27;;;;;;;7.03;2.30;;;;;;;3.68;100.00;98336.44;5110778;27;20207;-60
2023/01/10 08:07:58;;;;;;;2.43;1.53;;;;;;;3.66;100.00;98343.28;5110348;28;20193;-59
2023/01/10 08:10:26;;;;;;;3.20;2.03;;;;;;;3.69;100.00;98329.66;5110700;28;20242;-61
2023/01/10 08:12:53;;;;;;;3.03;2.40;;;;;;;3.70;100.00;98337.16;5110051;28;20200;-60
2023/01/10 08:15:20;;;;;;;4.83;2.50;;;;;;;3.57;100.00;98333.69;5110028;28;20696;-60
2023/01/10 08:17:47;;;;;;;6.00;2.27;;;;;;;3.62;100.00;98347.69;5109874;28;20197;-59
2023/01/10 08:20:13;;;;;;;2.30;1.93;;;;;;;3.64;100.00;98345.09;5109865;28;20786;-59
2023/01/10 08:22:40;;;;;;;3.03;1.83;;;;;;;3.50;100.00;98345.03;5109743;28;20300;-60
2023/01/10 08:25:09;;;;;;;5.07;3.73;;;;;;;3.59;100.00;98347.88;5109871;28;20217;-61
2023/01/10 08:27:36;;;;;;;2.67;2.30;;;;;;;3.84;100.00;98352.38;5109877;28;20197;-60
2023/01/10 08:30:03;;;;;;;2.47;1.80;;;;;;;3.60;100.00;98348.69;5110018;28;20225;-59
2023/01/10 08:32:30;;;;;;;2.23;1.63;;;;;;;3.67;100.00;98344.94;5109780;28;20205;-60
2023/01/10 08:34:57;;;;;;;2.97;2.20;;;;;;;3.63;100.00;98343.44;5109903;28;20237;-60
2023/01/10 08:37:24;;;;;;;2.47;2.10;;;;;;;3.73;100.00;98339.53;5113362;28;20197;-60
2023/01/10 08:39:51;;;;;;;2.10;1.90;;;;;;;3.84;100.00;98344.78;5114389;28;20216;-60
2023/01/10 08:42:19;;;;;;;1.90;1.80;;;;;;;4.12;100.00;98349.97;5114315;28;20220;-60
2023/01/10 08:44:46;;;;;;;2.70;2.47;;;;;;;4.40;100.00;98365.19;5114346;28;20244;-60
2023/01/10 08:47:13;;;;;;;3.00;1.90;;;;;;;4.24;100.00;98367.78;5113975;28;20197;-60
2023/01/10 08:49:40;;;;;;;3.03;1.87;;;;;;;4.31;100.00;98360.66;5113929;28;20233;-61
2023/01/10 08:52:07;;;;;;;1.23;1.23;;;;;;;4.37;100.00;98359.50;5113805;28;20197;-61
2023/01/10 08:54:34;;;;;;;3.00;2.60;;;;;;;4.53;100.00;98350.06;5113868;28;20217;-61
2023/01/10 08:57:01;;;;;;;4.63;2.30;;;;;;;4.65;100.00;98348.53;5113707;28;20564;-61
2023/01/10 08:59:29;;;;;;;3.67;2.30;;;;;;;4.75;100.00;98342.03;5114236;28;20563;-60
2023/01/10 09:01:57;;;;;;;3.73;2.40;;;;;;;4.78;100.00;98331.72;5113715;28;20193;-61
2023/01/10 09:04:25;;;;;;;6.10;3.20;;;;;;;4.91;100.00;98316.56;5114057;28;20221;-60
2023/01/10 09:06:52;;;;;;;4.93;2.13;;;;;;;4.83;100.00;98311.16;5113919;28;20328;-60
2023/01/10 09:09:18;;;;;;;3.37;2.40;;;;;;;4.70;100.00;98321.22;5113539;28;20849;-60
2023/01/10 09:11:45;;;;;;;2.53;2.33;;;;;;;4.74;100.00;98331.09;5113442;28;20716;-61
2023/01/10 09:14:12;;;;;;;2.03;1.93;;;;;;;4.61;100.00;98332.72;5113465;28;20217;-61
2023/01/10 09:16:41;;;;;;;2.90;2.47;;;;;;;4.66;100.00;98327.41;5113298;27;20221;-61
2023/01/10 09:19:08;;;;;;;3.67;1.83;;;;;;;4.70;100.00;98311.09;5113192;28;20226;-60
2023/01/10 09:21:35;;;;;;;2.67;2.20;;;;;;;4.69;100.00;98310.28;5113631;28;20481;-61
2023/01/10 09:24:02;;;;;;;2.27;2.03;;;;;;;4.71;100.00;98295.00;5113338;28;20219;-61
2023/01/10 09:26:29;;;;;;;4.43;2.20;;;;;;;4.67;100.00;98296.91;5113188;28;20209;-61
2023/01/10 09:28:55;;;;;;;2.67;2.43;;;;;;;4.73;100.00;98278.81;5113689;28;20222;-60
2023/01/10 09:31:22;;;;;;;2.27;2.03;;;;;;;4.80;100.00;98286.00;5113339;28;20212;-60
2023/01/10 09:33:51;;;;;;;5.47;2.67;;;;;;;4.89;100.00;98285.47;5112914;28;20221;-61
2023/01/10 09:36:17;;;;;;;6.33;2.60;;;;;;;4.98;100.00;98290.78;5112880;28;20221;-60
2023/01/10 09:38:44;;;;;;;2.53;2.33;;;;;;;4.84;100.00;98279.88;5112896;28;20221;-60
2023/01/10 09:41:21;;;;;;;4.20;2.10;;;;;;;5.00;100.00;98272.94;5112936;27;20201;-59
2023/01/10 09:43:59;;;;;;;5.57;2.70;;;;;;;5.13;100.00;98268.72;5112853;28;20417;-60
2023/01/10 09:46:36;;;;;;;4.07;2.93;;;;;;;4.98;100.00;98282.38;5112993;28;20204;-60
2023/01/10 09:49:18;;;;;;;3.07;2.20;;;;;;;5.07;100.00;98293.66;5112248;28;20221;-59
2023/01/10 09:51:48;;;;;;;1.97;1.80;;;;;;;4.78;100.00;98287.84;5112720;28;20197;-61
2023/01/10 09:54:20;;;;;;;1.90;1.73;;;;;;;4.84;100.00;98284.94;5112368;28;20867;-62
2023/01/10 09:56:48;;;;;;;3.73;2.87;;;;;;;4.90;100.00;98287.09;5112744;28;20224;-60
2023/01/10 09:59:19;;;;;;;3.50;2.13;;;;;;;4.98;100.00;98274.78;5112852;28;20646;-61
2023/01/10 10:01:49;;;;;;;1.67;1.57;;;;;;;5.00;100.00;98267.88;5112867;28;20198;-61
2023/01/10 10:04:23;;;;;;;4.60;3.10;;;;;;;5.11;100.00;98260.41;5112515;28;20244;-60
2023/01/10 10:06:51;;;;;;;1.03;1.00;;;;;;;5.09;100.00;98262.25;5112493;28;20617;-61
2023/01/10 10:09:25;;;;;;;3.60;2.40;;;;;;;5.09;100.00;98262.25;5112414;28;20217;-60
2023/01/10 10:12:23;;;;;;;4.70;2.20;;;;;;;5.20;100.00;98264.88;5112334;28;20208;-60
2023/01/10 10:15:02;;;;;;;2.27;1.53;;;;;;;5.14;100.00;98264.47;5100476;28;20244;-61
2023/01/10 10:17:41;;;;;;;2.40;2.20;;;;;;;5.26;100.00;98273.03;5112269;28;20204;-60
2023/01/10 10:20:22;;;;;;;2.57;2.37;;;;;;;5.13;100.00;98271.25;5112231;28;20220;-60
2023/01/10 10:23:02;;;;;;;2.77;2.30;;;;;;;5.25;100.00;98271.41;5112030;28;20203;-61
2023/01/10 10:25:47;;;;;;;3.73;1.87;;;;;;;5.33;100.00;98259.06;5112418;28;20197;-60
2023/01/10 10:28:50;;;;;;;3.93;2.87;;;;;;;5.32;100.00;98254.88;5112275;28;20202;-61
2023/01/10 10:31:26;;;;;;;2.80;2.60;;;;;;;5.33;100.00;98238.78;5112091;28;20207;-62
2023/01/10 10:34:00;;;;;;;3.23;2.93;;;;;;;5.39;100.00;98238.38;5111821;28;20217;-61
2023/01/10 10:36:38;;;;;;;3.77;2.23;;;;;;;5.36;100.00;98234.31;5111895;28;20239;-62
2023/01/10 10:39:06;;;;;;;3.27;2.50;;;;;;;5.29;100.00;98227.19;5112080;28;20220;-60
2023/01/10 10:41:37;;;;;;;4.00;3.07;;;;;;;5.31;100.00;98212.72;5111662;28;20575;-61
2023/01/10 10:44:18;;;;;;;3.30;2.37;;;;;;;5.33;100.00;98209.19;5111452;28;20229;-61
2023/01/10 10:46:45;;;;;;;2.53;1.83;;;;;;;5.55;100.00;98205.22;5111630;28;20201;-61
2023/01/10 10:49:18;;;;;;;6.63;2.43;;;;;;;5.46;100.00;98193.97;5111990;28;20221;-60
2023/01/10 10:51:52;;;;;;;2.70;1.73;;;;;;;5.49;100.00;98191.22;5111544;28;20201;-61
2023/01/10 10:54:19;;;;;;;2.30;2.10;;;;;;;5.47;100.00;98170.25;5111456;28;20217;-60
2023/01/10 10:56:47;;;;;;;4.73;2.97;;;;;;;5.58;100.00;98167.78;5111207;28;20909;-60
2023/01/10 10:59:18;;;;;;;2.00;1.80;;;;;;;5.47;100.00;98162.66;5110868;28;20236;-61
2023/01/10 11:01:47;;;;;;;3.70;2.73;;;;;;;5.48;100.00;98161.72;5111461;28;20201;-59
2023/01/10 11:04:17;;;;;;;8.07;3.53;;;;;;;5.43;100.00;98164.56;5111524;28;20282;-60
2023/01/10 11:06:48;;;;;;;3.20;2.60;;;;;;;5.35;100.00;98160.91;5111315;28;20601;-60
2023/01/10 11:09:20;;;;;;;1.87;1.40;;;;;;;5.35;100.00;98160.91;5111172;28;20213;-61
2023/01/10 11:11:51;;;;;;;4.10;2.00;;;;;;;5.39;100.00;98157.28;5111254;28;20205;-61
2023/01/10 11:14:42;;;;;;;1.90;1.80;;;;;;;5.22;100.00;98161.72;5111629;27;20225;-60
2023/01/10 11:17:22;;;;;;;3.30;2.57;;;;;;;5.19;100.00;98151.78;5111329;28;20605;-61
2023/01/10 11:19:59;;;;;;;6.60;2.73;;;;;;;5.06;100.00;98160.25;5111288;27;20229;-60
2023/01/10 11:22:33;;;;;;;2.43;2.23;;;;;;;5.24;100.00;98153.22;5111350;28;20201;-60
2023/01/10 11:25:02;;;;;;;2.70;2.43;;;;;;;5.29;100.00;98148.63;5111194;28;20225;-60
2023/01/10 11:27:31;;;;;;;3.63;2.30;;;;;;;5.21;100.00;98149.97;5110960;28;20197;-61
2023/01/10 11:30:02;;;;;;;1.73;1.13;;;;;;;5.16;100.00;98136.78;5110912;28;20221;-60
2023/01/10 11:32:35;;;;;;;6.93;2.83;;;;;;;5.13;100.00;98136.97;5110980;28;20197;-60
2023/01/10 11:35:07;;;;;;;3.80;2.13;;;;;;;5.22;100.00;98138.91;5111006;28;20225;-61
2023/01/10 11:37:36;;;;;;;2.77;1.60;;;;;;;5.16;100.00;98146.91;5110639;28;20215;-61
2023/01/10 11:40:22;;;;;;;3.60;2.20;;;;;;;5.09;100.00;98140.63;5110738;28;20221;-60
2023/01/10 11:42:51;;;;;;;3.53;2.93;;;;;;;5.08;100.00;98139.00;5110784;28;20427;-60
2023/01/10 11:45:30;;;;;;;2.47;1.97;;;;;;;4.98;100.00;98143.84;5110664;28;20228;-60
2023/01/10 11:48:07;;;;;;;1.90;1.60;;;;;;;5.01;100.00;98142.84;5110712;28;20205;-60
2023/01/10 11:50:36;;;;;;;2.20;1.40;;;;;;;4.99;100.00;98135.34;5111174;28;20969;-61
2023/01/10 11:53:06;;;;;;;2.90;2.10;;;;;;;4.96;100.00;98129.66;5110187;28;20233;-62